Youngtown, Arizona
Current Conditions -  °F | °C
As of 7:47 PM on Tuesday 21 Oct 2014 (Local Time) from KGEU Reporting Station
Scattered Clouds Scattered Clouds  
Wind Chill: 81°   Ceiling: Unl
Heat Index: 81°   Visibility: 20mi
Dew Point: 55°   Wind: 3mph
Humidity: 42%   Direction: 180°S
Pressure: 29.82"   Gusts: NA
Location:  33.59°N, 112.3°W
Report Text: KGEU 220247Z 18003KT 20SM SCT200 27/13 A2982 RMK LAST
Loading
Personal Weather Stations






























Interactive Weather Map
Tropical Storm Tracking
New forecast layout! Learn more

10-Day Weather Forecast

Advertisements
Track Severe Weather on mobile